sensor_id;sensor_type;location;lat;lon;timestamp;P1;durP1;ratioP1;P2;durP2;ratioP2
55330;SDS011;58851;42.984;20.336;2022-12-07T00:03:39;176.65;;;120.72;;
55330;SDS011;58851;42.984;20.336;2022-12-07T00:06:07;164.95;;;115.40;;
55330;SDS011;58851;42.984;20.336;2022-12-07T00:08:34;184.68;;;124.22;;
55330;SDS011;58851;42.984;20.336;2022-12-07T00:11:01;199.35;;;126.55;;
55330;SDS011;58851;42.984;20.336;2022-12-07T00:13:27;221.45;;;142.75;;
55330;SDS011;58851;42.984;20.336;2022-12-07T00:15:53;239.20;;;159.90;;
55330;SDS011;58851;42.984;20.336;2022-12-07T00:18:19;213.40;;;142.63;;
55330;SDS011;58851;42.984;20.336;2022-12-07T00:20:45;219.73;;;128.88;;
55330;SDS011;58851;42.984;20.336;2022-12-07T00:23:10;218.18;;;137.85;;
55330;SDS011;58851;42.984;20.336;2022-12-07T00:25:36;194.75;;;122.93;;
55330;SDS011;58851;42.984;20.336;2022-12-07T00:28:02;202.23;;;123.30;;
55330;SDS011;58851;42.984;20.336;2022-12-07T00:30:28;197.82;;;128.68;;
55330;SDS011;58851;42.984;20.336;2022-12-07T00:32:54;193.60;;;121.25;;
55330;SDS011;58851;42.984;20.336;2022-12-07T00:35:26;207.80;;;132.35;;
55330;SDS011;58851;42.984;20.336;2022-12-07T00:37:55;209.98;;;133.45;;
55330;SDS011;58851;42.984;20.336;2022-12-07T00:40:21;208.70;;;140.18;;
55330;SDS011;58851;42.984;20.336;2022-12-07T00:42:47;199.93;;;134.00;;
55330;SDS011;58851;42.984;20.336;2022-12-07T00:45:13;181.40;;;121.97;;
55330;SDS011;58851;42.984;20.336;2022-12-07T00:47:38;196.70;;;127.93;;
55330;SDS011;58851;42.984;20.336;2022-12-07T00:50:04;182.35;;;118.35;;
55330;SDS011;58851;42.984;20.336;2022-12-07T00:52:30;161.60;;;107.20;;
55330;SDS011;58851;42.984;20.336;2022-12-07T00:54:56;167.45;;;108.30;;
55330;SDS011;58851;42.984;20.336;2022-12-07T00:57:22;245.70;;;143.00;;
55330;SDS011;58851;42.984;20.336;2022-12-07T00:59:48;212.15;;;128.52;;
55330;SDS011;58851;42.984;20.336;2022-12-07T01:02:14;201.70;;;133.38;;
55330;SDS011;58851;42.984;20.336;2022-12-07T01:04:39;224.90;;;141.45;;
55330;SDS011;58851;42.984;20.336;2022-12-07T01:07:05;233.23;;;138.07;;
55330;SDS011;58851;42.984;20.336;2022-12-07T01:09:31;216.43;;;132.60;;
55330;SDS011;58851;42.984;20.336;2022-12-07T01:11:57;198.57;;;120.63;;
55330;SDS011;58851;42.984;20.336;2022-12-07T01:14:23;209.15;;;131.85;;
55330;SDS011;58851;42.984;20.336;2022-12-07T01:16:49;190.45;;;120.75;;
55330;SDS011;58851;42.984;20.336;2022-12-07T01:19:15;167.40;;;108.97;;
55330;SDS011;58851;42.984;20.336;2022-12-07T01:21:40;173.77;;;114.75;;
55330;SDS011;58851;42.984;20.336;2022-12-07T01:24:07;177.77;;;112.53;;
55330;SDS011;58851;42.984;20.336;2022-12-07T01:26:35;182.30;;;115.32;;
55330;SDS011;58851;42.984;20.336;2022-12-07T01:29:01;174.18;;;114.45;;
55330;SDS011;58851;42.984;20.336;2022-12-07T01:31:27;178.20;;;113.95;;
55330;SDS011;58851;42.984;20.336;2022-12-07T01:33:57;191.40;;;122.70;;
55330;SDS011;58851;42.984;20.336;2022-12-07T01:36:25;243.55;;;173.98;;
55330;SDS011;58851;42.984;20.336;2022-12-07T01:38:57;210.35;;;146.60;;
55330;SDS011;58851;42.984;20.336;2022-12-07T01:41:25;213.40;;;142.98;;
55330;SDS011;58851;42.984;20.336;2022-12-07T01:46:40;190.77;;;122.50;;
55330;SDS011;58851;42.984;20.336;2022-12-07T01:49:12;195.52;;;124.28;;
55330;SDS011;58851;42.984;20.336;2022-12-07T01:55:06;225.88;;;149.60;;
55330;SDS011;58851;42.984;20.336;2022-12-07T01:57:37;216.85;;;145.25;;
55330;SDS011;58851;42.984;20.336;2022-12-07T02:00:10;211.77;;;139.25;;
55330;SDS011;58851;42.984;20.336;2022-12-07T02:02:38;206.25;;;139.48;;
55330;SDS011;58851;42.984;20.336;2022-12-07T02:05:10;204.10;;;136.87;;
55330;SDS011;58851;42.984;20.336;2022-12-07T02:07:37;193.75;;;127.65;;
55330;SDS011;58851;42.984;20.336;2022-12-07T02:10:17;156.65;;;105.78;;
55330;SDS011;58851;42.984;20.336;2022-12-07T02:12:46;185.65;;;120.68;;
55330;SDS011;58851;42.984;20.336;2022-12-07T02:15:15;230.82;;;149.25;;
55330;SDS011;58851;42.984;20.336;2022-12-07T02:17:48;227.88;;;147.27;;
55330;SDS011;58851;42.984;20.336;2022-12-07T02:20:30;219.77;;;145.07;;
55330;SDS011;58851;42.984;20.336;2022-12-07T02:25:57;252.02;;;163.43;;
55330;SDS011;58851;42.984;20.336;2022-12-07T02:28:29;272.70;;;175.50;;
55330;SDS011;58851;42.984;20.336;2022-12-07T02:31:01;270.45;;;165.77;;
55330;SDS011;58851;42.984;20.336;2022-12-07T02:33:36;270.95;;;170.38;;
55330;SDS011;58851;42.984;20.336;2022-12-07T02:36:21;258.15;;;167.45;;
55330;SDS011;58851;42.984;20.336;2022-12-07T02:39:15;264.27;;;167.93;;
55330;SDS011;58851;42.984;20.336;2022-12-07T02:41:51;266.35;;;168.90;;
55330;SDS011;58851;42.984;20.336;2022-12-07T02:44:23;254.10;;;161.90;;
55330;SDS011;58851;42.984;20.336;2022-12-07T02:46:57;248.48;;;157.88;;
55330;SDS011;58851;42.984;20.336;2022-12-07T02:49:29;244.57;;;157.38;;
55330;SDS011;58851;42.984;20.336;2022-12-07T02:51:56;223.45;;;145.32;;
55330;SDS011;58851;42.984;20.336;2022-12-07T02:54:22;230.73;;;143.93;;
55330;SDS011;58851;42.984;20.336;2022-12-07T02:56:50;217.55;;;142.88;;
55330;SDS011;58851;42.984;20.336;2022-12-07T02:59:39;206.00;;;136.00;;
55330;SDS011;58851;42.984;20.336;2022-12-07T03:02:25;212.63;;;130.65;;
55330;SDS011;58851;42.984;20.336;2022-12-07T03:08:02;226.07;;;136.23;;
55330;SDS011;58851;42.984;20.336;2022-12-07T03:19:10;143.20;;;94.05;;
55330;SDS011;58851;42.984;20.336;2022-12-07T03:21:56;139.23;;;89.70;;
55330;SDS011;58851;42.984;20.336;2022-12-07T03:24:26;131.18;;;87.15;;
55330;SDS011;58851;42.984;20.336;2022-12-07T03:27:06;121.30;;;79.72;;
55330;SDS011;58851;42.984;20.336;2022-12-07T03:30:07;113.43;;;76.97;;
55330;SDS011;58851;42.984;20.336;2022-12-07T03:36:06;137.60;;;91.45;;
55330;SDS011;58851;42.984;20.336;2022-12-07T03:39:02;118.77;;;75.67;;
55330;SDS011;58851;42.984;20.336;2022-12-07T03:41:52;106.63;;;67.20;;
55330;SDS011;58851;42.984;20.336;2022-12-07T03:44:19;97.65;;;64.50;;
55330;SDS011;58851;42.984;20.336;2022-12-07T03:54:42;111.93;;;70.32;;
55330;SDS011;58851;42.984;20.336;2022-12-07T03:57:16;133.20;;;74.28;;
55330;SDS011;58851;42.984;20.336;2022-12-07T03:59:43;133.65;;;78.82;;
55330;SDS011;58851;42.984;20.336;2022-12-07T04:02:11;137.95;;;80.68;;
55330;SDS011;58851;42.984;20.336;2022-12-07T04:04:38;117.85;;;72.00;;
55330;SDS011;58851;42.984;20.336;2022-12-07T04:07:05;109.35;;;73.82;;
55330;SDS011;58851;42.984;20.336;2022-12-07T04:09:30;130.32;;;87.20;;
55330;SDS011;58851;42.984;20.336;2022-12-07T04:11:56;120.85;;;76.45;;
55330;SDS011;58851;42.984;20.336;2022-12-07T04:14:22;123.75;;;77.35;;
55330;SDS011;58851;42.984;20.336;2022-12-07T04:16:49;114.63;;;74.55;;
55330;SDS011;58851;42.984;20.336;2022-12-07T04:19:23;124.13;;;86.10;;
55330;SDS011;58851;42.984;20.336;2022-12-07T04:21:50;158.98;;;113.47;;
55330;SDS011;58851;42.984;20.336;2022-12-07T04:24:16;187.32;;;115.43;;
55330;SDS011;58851;42.984;20.336;2022-12-07T04:26:42;197.27;;;112.43;;
55330;SDS011;58851;42.984;20.336;2022-12-07T04:29:09;173.73;;;113.45;;
55330;SDS011;58851;42.984;20.336;2022-12-07T04:31:35;160.77;;;100.55;;
55330;SDS011;58851;42.984;20.336;2022-12-07T04:34:02;132.95;;;82.82;;
55330;SDS011;58851;42.984;20.336;2022-12-07T04:36:28;175.57;;;96.28;;
55330;SDS011;58851;42.984;20.336;2022-12-07T04:38:54;138.25;;;83.00;;
55330;SDS011;58851;42.984;20.336;2022-12-07T04:41:21;130.25;;;77.68;;
55330;SDS011;58851;42.984;20.336;2022-12-07T04:44:01;121.72;;;70.97;;
55330;SDS011;58851;42.984;20.336;2022-12-07T04:46:29;124.07;;;75.75;;
55330;SDS011;58851;42.984;20.336;2022-12-07T04:48:56;152.15;;;86.10;;
55330;SDS011;58851;42.984;20.336;2022-12-07T04:51:27;152.52;;;80.82;;
55330;SDS011;58851;42.984;20.336;2022-12-07T04:53:54;138.07;;;77.82;;
55330;SDS011;58851;42.984;20.336;2022-12-07T04:56:21;395.45;;;170.05;;
55330;SDS011;58851;42.984;20.336;2022-12-07T04:58:48;296.73;;;148.73;;
55330;SDS011;58851;42.984;20.336;2022-12-07T05:01:15;165.98;;;87.80;;
55330;SDS011;58851;42.984;20.336;2022-12-07T05:03:41;177.60;;;80.43;;
55330;SDS011;58851;42.984;20.336;2022-12-07T05:06:08;132.35;;;70.15;;
55330;SDS011;58851;42.984;20.336;2022-12-07T05:08:35;127.82;;;64.38;;
55330;SDS011;58851;42.984;20.336;2022-12-07T05:11:02;175.43;;;78.05;;
55330;SDS011;58851;42.984;20.336;2022-12-07T05:13:29;143.55;;;60.85;;
55330;SDS011;58851;42.984;20.336;2022-12-07T05:15:55;106.10;;;52.17;;
55330;SDS011;58851;42.984;20.336;2022-12-07T05:18:21;105.43;;;53.90;;
55330;SDS011;58851;42.984;20.336;2022-12-07T05:20:46;135.77;;;63.22;;
55330;SDS011;58851;42.984;20.336;2022-12-07T05:23:12;185.50;;;71.30;;
55330;SDS011;58851;42.984;20.336;2022-12-07T05:25:38;98.63;;;51.47;;
55330;SDS011;58851;42.984;20.336;2022-12-07T05:28:04;165.75;;;88.22;;
55330;SDS011;58851;42.984;20.336;2022-12-07T05:30:30;123.57;;;71.68;;
55330;SDS011;58851;42.984;20.336;2022-12-07T05:32:57;124.82;;;65.78;;
55330;SDS011;58851;42.984;20.336;2022-12-07T05:35:23;120.07;;;64.82;;
55330;SDS011;58851;42.984;20.336;2022-12-07T05:37:49;149.65;;;86.47;;
55330;SDS011;58851;42.984;20.336;2022-12-07T05:40:15;154.93;;;85.72;;
55330;SDS011;58851;42.984;20.336;2022-12-07T05:42:41;174.48;;;85.57;;
55330;SDS011;58851;42.984;20.336;2022-12-07T05:45:08;147.23;;;77.43;;
55330;SDS011;58851;42.984;20.336;2022-12-07T05:47:34;202.48;;;89.22;;
55330;SDS011;58851;42.984;20.336;2022-12-07T05:50:00;230.88;;;101.80;;
55330;SDS011;58851;42.984;20.336;2022-12-07T05:52:26;202.27;;;98.68;;
55330;SDS011;58851;42.984;20.336;2022-12-07T05:54:52;179.40;;;91.50;;
55330;SDS011;58851;42.984;20.336;2022-12-07T05:57:18;137.90;;;81.30;;
55330;SDS011;58851;42.984;20.336;2022-12-07T05:59:44;164.40;;;89.35;;
55330;SDS011;58851;42.984;20.336;2022-12-07T06:02:11;154.70;;;86.63;;
55330;SDS011;58851;42.984;20.336;2022-12-07T06:04:43;169.75;;;95.82;;
55330;SDS011;58851;42.984;20.336;2022-12-07T06:07:10;139.23;;;77.00;;
55330;SDS011;58851;42.984;20.336;2022-12-07T06:09:37;138.18;;;78.05;;
55330;SDS011;58851;42.984;20.336;2022-12-07T06:12:03;135.68;;;81.82;;
55330;SDS011;58851;42.984;20.336;2022-12-07T06:14:48;196.25;;;107.78;;
55330;SDS011;58851;42.984;20.336;2022-12-07T06:17:14;151.48;;;91.55;;
55330;SDS011;58851;42.984;20.336;2022-12-07T06:19:41;173.48;;;97.85;;
55330;SDS011;58851;42.984;20.336;2022-12-07T06:22:07;153.02;;;92.05;;
55330;SDS011;58851;42.984;20.336;2022-12-07T06:24:37;212.13;;;111.57;;
55330;SDS011;58851;42.984;20.336;2022-12-07T06:27:03;256.27;;;116.47;;
55330;SDS011;58851;42.984;20.336;2022-12-07T06:29:29;217.85;;;111.03;;
55330;SDS011;58851;42.984;20.336;2022-12-07T06:31:55;253.88;;;126.80;;
55330;SDS011;58851;42.984;20.336;2022-12-07T06:34:21;237.23;;;121.32;;
55330;SDS011;58851;42.984;20.336;2022-12-07T06:36:48;197.43;;;105.85;;
55330;SDS011;58851;42.984;20.336;2022-12-07T06:39:20;173.13;;;93.10;;
55330;SDS011;58851;42.984;20.336;2022-12-07T06:41:48;168.95;;;91.82;;
55330;SDS011;58851;42.984;20.336;2022-12-07T06:44:14;154.00;;;89.47;;
55330;SDS011;58851;42.984;20.336;2022-12-07T06:46:40;212.40;;;107.63;;
55330;SDS011;58851;42.984;20.336;2022-12-07T06:49:06;124.70;;;72.57;;
55330;SDS011;58851;42.984;20.336;2022-12-07T06:51:32;113.32;;;66.13;;
55330;SDS011;58851;42.984;20.336;2022-12-07T06:54:01;83.35;;;47.05;;
55330;SDS011;58851;42.984;20.336;2022-12-07T06:56:29;84.82;;;53.78;;
55330;SDS011;58851;42.984;20.336;2022-12-07T06:58:55;87.50;;;52.15;;
55330;SDS011;58851;42.984;20.336;2022-12-07T07:01:20;100.38;;;60.30;;
55330;SDS011;58851;42.984;20.336;2022-12-07T07:03:47;96.03;;;52.25;;
55330;SDS011;58851;42.984;20.336;2022-12-07T07:06:13;88.47;;;54.17;;
55330;SDS011;58851;42.984;20.336;2022-12-07T07:08:39;88.20;;;55.53;;
55330;SDS011;58851;42.984;20.336;2022-12-07T07:11:06;98.80;;;59.25;;
55330;SDS011;58851;42.984;20.336;2022-12-07T07:13:33;121.80;;;70.47;;
55330;SDS011;58851;42.984;20.336;2022-12-07T07:15:58;114.47;;;68.03;;
55330;SDS011;58851;42.984;20.336;2022-12-07T07:18:24;136.60;;;79.82;;
55330;SDS011;58851;42.984;20.336;2022-12-07T07:20:51;185.13;;;92.85;;
55330;SDS011;58851;42.984;20.336;2022-12-07T07:23:18;182.70;;;95.57;;
55330;SDS011;58851;42.984;20.336;2022-12-07T07:25:44;162.25;;;92.82;;
55330;SDS011;58851;42.984;20.336;2022-12-07T07:28:11;158.55;;;87.53;;
55330;SDS011;58851;42.984;20.336;2022-12-07T07:30:37;145.68;;;83.03;;
55330;SDS011;58851;42.984;20.336;2022-12-07T07:33:03;156.88;;;89.55;;
55330;SDS011;58851;42.984;20.336;2022-12-07T07:35:31;198.90;;;106.43;;
55330;SDS011;58851;42.984;20.336;2022-12-07T07:37:58;157.80;;;89.07;;
55330;SDS011;58851;42.984;20.336;2022-12-07T07:40:24;172.55;;;93.80;;
55330;SDS011;58851;42.984;20.336;2022-12-07T07:42:51;172.45;;;90.90;;
55330;SDS011;58851;42.984;20.336;2022-12-07T07:45:19;184.77;;;99.10;;
55330;SDS011;58851;42.984;20.336;2022-12-07T07:47:46;182.90;;;92.95;;
55330;SDS011;58851;42.984;20.336;2022-12-07T07:50:12;161.30;;;88.68;;
55330;SDS011;58851;42.984;20.336;2022-12-07T07:52:38;172.20;;;89.95;;
55330;SDS011;58851;42.984;20.336;2022-12-07T07:55:04;172.48;;;94.20;;
55330;SDS011;58851;42.984;20.336;2022-12-07T07:57:30;185.85;;;98.97;;
55330;SDS011;58851;42.984;20.336;2022-12-07T07:59:56;208.73;;;115.70;;
55330;SDS011;58851;42.984;20.336;2022-12-07T08:02:22;200.00;;;110.25;;
55330;SDS011;58851;42.984;20.336;2022-12-07T08:04:48;165.65;;;100.70;;
55330;SDS011;58851;42.984;20.336;2022-12-07T08:07:14;167.35;;;99.07;;
55330;SDS011;58851;42.984;20.336;2022-12-07T08:09:40;132.68;;;82.38;;
55330;SDS011;58851;42.984;20.336;2022-12-07T08:12:06;125.80;;;73.20;;
55330;SDS011;58851;42.984;20.336;2022-12-07T08:14:32;123.93;;;76.63;;
55330;SDS011;58851;42.984;20.336;2022-12-07T08:16:59;163.63;;;92.97;;
55330;SDS011;58851;42.984;20.336;2022-12-07T08:19:25;199.38;;;105.82;;
55330;SDS011;58851;42.984;20.336;2022-12-07T08:21:51;114.28;;;67.68;;
55330;SDS011;58851;42.984;20.336;2022-12-07T08:24:17;115.72;;;73.10;;
55330;SDS011;58851;42.984;20.336;2022-12-07T08:26:43;93.57;;;59.13;;
55330;SDS011;58851;42.984;20.336;2022-12-07T08:29:09;106.60;;;62.08;;
55330;SDS011;58851;42.984;20.336;2022-12-07T08:31:35;201.00;;;117.20;;
55330;SDS011;58851;42.984;20.336;2022-12-07T08:34:01;181.73;;;102.38;;
55330;SDS011;58851;42.984;20.336;2022-12-07T08:36:27;193.15;;;107.68;;
55330;SDS011;58851;42.984;20.336;2022-12-07T08:38:52;242.18;;;124.55;;
55330;SDS011;58851;42.984;20.336;2022-12-07T08:41:18;190.10;;;104.57;;
55330;SDS011;58851;42.984;20.336;2022-12-07T08:43:44;178.23;;;97.45;;
55330;SDS011;58851;42.984;20.336;2022-12-07T08:51:30;169.35;;;85.13;;
55330;SDS011;58851;42.984;20.336;2022-12-07T08:53:56;152.93;;;82.82;;
55330;SDS011;58851;42.984;20.336;2022-12-07T08:56:25;161.13;;;90.80;;
55330;SDS011;58851;42.984;20.336;2022-12-07T08:58:51;152.05;;;81.57;;
55330;SDS011;58851;42.984;20.336;2022-12-07T09:01:18;124.20;;;71.70;;
55330;SDS011;58851;42.984;20.336;2022-12-07T09:03:43;125.70;;;72.30;;
55330;SDS011;58851;42.984;20.336;2022-12-07T09:06:09;172.18;;;102.75;;
55330;SDS011;58851;42.984;20.336;2022-12-07T09:08:40;161.35;;;95.70;;
55330;SDS011;58851;42.984;20.336;2022-12-07T09:11:12;143.23;;;80.45;;
55330;SDS011;58851;42.984;20.336;2022-12-07T09:13:38;126.70;;;73.38;;
55330;SDS011;58851;42.984;20.336;2022-12-07T09:16:04;144.77;;;85.25;;
55330;SDS011;58851;42.984;20.336;2022-12-07T09:18:30;120.57;;;69.10;;
55330;SDS011;58851;42.984;20.336;2022-12-07T09:20:56;92.50;;;53.85;;
55330;SDS011;58851;42.984;20.336;2022-12-07T09:23:22;83.57;;;51.95;;
55330;SDS011;58851;42.984;20.336;2022-12-07T09:25:48;81.22;;;47.58;;
55330;SDS011;58851;42.984;20.336;2022-12-07T09:28:14;74.47;;;46.47;;
55330;SDS011;58851;42.984;20.336;2022-12-07T09:30:44;69.15;;;40.97;;
55330;SDS011;58851;42.984;20.336;2022-12-07T09:33:14;87.78;;;51.65;;
55330;SDS011;58851;42.984;20.336;2022-12-07T09:35:46;77.82;;;47.10;;
55330;SDS011;58851;42.984;20.336;2022-12-07T09:38:13;79.22;;;48.50;;
55330;SDS011;58851;42.984;20.336;2022-12-07T09:40:40;80.53;;;48.75;;
55330;SDS011;58851;42.984;20.336;2022-12-07T09:43:15;58.55;;;37.15;;
55330;SDS011;58851;42.984;20.336;2022-12-07T09:45:44;209.70;;;114.88;;
55330;SDS011;58851;42.984;20.336;2022-12-07T09:48:20;256.08;;;144.50;;
55330;SDS011;58851;42.984;20.336;2022-12-07T09:50:50;67.15;;;39.70;;
55330;SDS011;58851;42.984;20.336;2022-12-07T09:53:27;72.18;;;44.30;;
55330;SDS011;58851;42.984;20.336;2022-12-07T09:55:59;72.10;;;41.30;;
55330;SDS011;58851;42.984;20.336;2022-12-07T09:58:27;63.53;;;39.17;;
55330;SDS011;58851;42.984;20.336;2022-12-07T10:03:32;98.97;;;53.83;;
55330;SDS011;58851;42.984;20.336;2022-12-07T10:06:03;80.38;;;50.65;;
55330;SDS011;58851;42.984;20.336;2022-12-07T10:08:30;81.82;;;46.22;;
55330;SDS011;58851;42.984;20.336;2022-12-07T10:10:57;78.07;;;45.45;;
55330;SDS011;58851;42.984;20.336;2022-12-07T10:13:42;72.32;;;38.95;;
55330;SDS011;58851;42.984;20.336;2022-12-07T10:16:31;69.47;;;35.10;;
55330;SDS011;58851;42.984;20.336;2022-12-07T10:19:25;66.80;;;36.80;;
55330;SDS011;58851;42.984;20.336;2022-12-07T10:22:03;68.75;;;40.80;;
55330;SDS011;58851;42.984;20.336;2022-12-07T10:24:41;66.18;;;36.03;;
55330;SDS011;58851;42.984;20.336;2022-12-07T10:27:19;61.78;;;36.25;;
55330;SDS011;58851;42.984;20.336;2022-12-07T10:30:08;75.97;;;49.50;;
55330;SDS011;58851;42.984;20.336;2022-12-07T10:32:40;91.95;;;53.75;;
55330;SDS011;58851;42.984;20.336;2022-12-07T10:37:52;75.53;;;45.60;;
55330;SDS011;58851;42.984;20.336;2022-12-07T10:40:26;80.82;;;49.25;;
55330;SDS011;58851;42.984;20.336;2022-12-07T10:43:02;85.25;;;52.85;;
55330;SDS011;58851;42.984;20.336;2022-12-07T10:54:51;67.55;;;43.70;;
55330;SDS011;58851;42.984;20.336;2022-12-07T10:57:16;79.72;;;50.13;;
55330;SDS011;58851;42.984;20.336;2022-12-07T11:11:13;52.20;;;33.55;;
55330;SDS011;58851;42.984;20.336;2022-12-07T11:14:05;28.45;;;20.13;;
55330;SDS011;58851;42.984;20.336;2022-12-07T11:16:56;28.63;;;21.05;;
55330;SDS011;58851;42.984;20.336;2022-12-07T11:20:04;43.17;;;27.98;;
55330;SDS011;58851;42.984;20.336;2022-12-07T11:25:39;28.92;;;22.08;;
55330;SDS011;58851;42.984;20.336;2022-12-07T11:28:43;27.20;;;21.27;;
55330;SDS011;58851;42.984;20.336;2022-12-07T11:31:36;37.33;;;26.10;;
55330;SDS011;58851;42.984;20.336;2022-12-07T11:37:12;50.88;;;34.97;;
55330;SDS011;58851;42.984;20.336;2022-12-07T11:39:52;39.38;;;28.35;;
55330;SDS011;58851;42.984;20.336;2022-12-07T11:42:58;40.47;;;28.67;;
55330;SDS011;58851;42.984;20.336;2022-12-07T11:45:28;38.17;;;27.70;;
55330;SDS011;58851;42.984;20.336;2022-12-07T11:48:02;37.70;;;26.83;;
55330;SDS011;58851;42.984;20.336;2022-12-07T12:00:37;74.35;;;52.22;;
55330;SDS011;58851;42.984;20.336;2022-12-07T12:03:14;48.75;;;33.10;;
55330;SDS011;58851;42.984;20.336;2022-12-07T12:05:45;62.00;;;44.38;;
55330;SDS011;58851;42.984;20.336;2022-12-07T12:08:21;47.92;;;33.35;;
55330;SDS011;58851;42.984;20.336;2022-12-07T12:10:55;52.53;;;34.78;;
55330;SDS011;58851;42.984;20.336;2022-12-07T12:13:41;51.90;;;36.20;;
55330;SDS011;58851;42.984;20.336;2022-12-07T12:21:47;65.05;;;44.95;;
55330;SDS011;58851;42.984;20.336;2022-12-07T12:24:19;58.53;;;40.40;;
55330;SDS011;58851;42.984;20.336;2022-12-07T12:26:54;61.47;;;43.45;;
55330;SDS011;58851;42.984;20.336;2022-12-07T12:29:43;78.00;;;54.72;;
55330;SDS011;58851;42.984;20.336;2022-12-07T12:34:42;61.38;;;44.38;;
55330;SDS011;58851;42.984;20.336;2022-12-07T12:42:48;78.15;;;51.00;;
55330;SDS011;58851;42.984;20.336;2022-12-07T12:45:22;82.20;;;52.55;;
55330;SDS011;58851;42.984;20.336;2022-12-07T13:00:43;120.03;;;84.03;;
55330;SDS011;58851;42.984;20.336;2022-12-07T13:03:27;115.93;;;81.40;;
55330;SDS011;58851;42.984;20.336;2022-12-07T13:08:55;101.28;;;71.90;;
55330;SDS011;58851;42.984;20.336;2022-12-07T13:11:33;95.90;;;70.38;;
55330;SDS011;58851;42.984;20.336;2022-12-07T13:17:07;104.32;;;72.47;;
55330;SDS011;58851;42.984;20.336;2022-12-07T13:25:18;109.50;;;80.13;;
55330;SDS011;58851;42.984;20.336;2022-12-07T13:28:02;97.38;;;69.70;;
55330;SDS011;58851;42.984;20.336;2022-12-07T13:31:03;88.90;;;64.18;;
55330;SDS011;58851;42.984;20.336;2022-12-07T13:33:55;77.60;;;57.95;;
55330;SDS011;58851;42.984;20.336;2022-12-07T13:36:25;76.97;;;53.65;;
55330;SDS011;58851;42.984;20.336;2022-12-07T13:38:58;81.55;;;58.70;;
55330;SDS011;58851;42.984;20.336;2022-12-07T13:41:25;71.57;;;52.47;;
55330;SDS011;58851;42.984;20.336;2022-12-07T13:44:05;59.90;;;45.22;;
55330;SDS011;58851;42.984;20.336;2022-12-07T13:46:58;65.72;;;46.10;;
55330;SDS011;58851;42.984;20.336;2022-12-07T13:49:54;64.97;;;48.47;;
55330;SDS011;58851;42.984;20.336;2022-12-07T13:52:30;62.10;;;44.15;;
55330;SDS011;58851;42.984;20.336;2022-12-07T13:57:42;59.70;;;41.83;;
55330;SDS011;58851;42.984;20.336;2022-12-07T14:00:20;66.38;;;46.90;;
55330;SDS011;58851;42.984;20.336;2022-12-07T14:05:39;66.20;;;45.67;;
55330;SDS011;58851;42.984;20.336;2022-12-07T14:10:40;71.88;;;51.25;;
55330;SDS011;58851;42.984;20.336;2022-12-07T14:16:42;117.10;;;79.82;;
55330;SDS011;58851;42.984;20.336;2022-12-07T14:19:05;84.10;;;52.25;;
55330;SDS011;58851;42.984;20.336;2022-12-07T14:22:06;70.57;;;51.22;;
55330;SDS011;58851;42.984;20.336;2022-12-07T14:24:41;75.35;;;53.45;;
55330;SDS011;58851;42.984;20.336;2022-12-07T14:27:16;138.07;;;94.97;;
55330;SDS011;58851;42.984;20.336;2022-12-07T14:29:46;113.90;;;82.80;;
55330;SDS011;58851;42.984;20.336;2022-12-07T14:34:41;101.45;;;78.90;;
55330;SDS011;58851;42.984;20.336;2022-12-07T14:37:17;106.38;;;78.25;;
55330;SDS011;58851;42.984;20.336;2022-12-07T14:39:43;137.55;;;95.95;;
55330;SDS011;58851;42.984;20.336;2022-12-07T14:42:09;137.00;;;99.05;;
55330;SDS011;58851;42.984;20.336;2022-12-07T14:44:35;152.25;;;106.35;;
55330;SDS011;58851;42.984;20.336;2022-12-07T14:47:01;160.80;;;114.93;;
55330;SDS011;58851;42.984;20.336;2022-12-07T14:49:26;164.30;;;119.00;;
55330;SDS011;58851;42.984;20.336;2022-12-07T14:51:52;172.35;;;119.70;;
55330;SDS011;58851;42.984;20.336;2022-12-07T14:54:19;167.73;;;122.75;;
55330;SDS011;58851;42.984;20.336;2022-12-07T14:56:47;193.40;;;137.07;;
55330;SDS011;58851;42.984;20.336;2022-12-07T14:59:17;310.77;;;218.75;;
55330;SDS011;58851;42.984;20.336;2022-12-07T15:01:43;298.75;;;204.52;;
55330;SDS011;58851;42.984;20.336;2022-12-07T15:04:10;201.63;;;147.93;;
55330;SDS011;58851;42.984;20.336;2022-12-07T15:06:36;151.50;;;114.85;;
55330;SDS011;58851;42.984;20.336;2022-12-07T15:09:02;202.45;;;138.20;;
55330;SDS011;58851;42.984;20.336;2022-12-07T15:11:28;274.15;;;181.23;;
55330;SDS011;58851;42.984;20.336;2022-12-07T15:13:54;166.02;;;119.10;;
55330;SDS011;58851;42.984;20.336;2022-12-07T15:16:37;279.25;;;211.23;;
55330;SDS011;58851;42.984;20.336;2022-12-07T15:19:20;270.70;;;205.75;;
55330;SDS011;58851;42.984;20.336;2022-12-07T15:21:51;241.15;;;171.43;;
55330;SDS011;58851;42.984;20.336;2022-12-07T15:24:17;254.93;;;169.27;;
55330;SDS011;58851;42.984;20.336;2022-12-07T15:26:44;362.30;;;224.60;;
55330;SDS011;58851;42.984;20.336;2022-12-07T15:29:10;377.08;;;230.38;;
55330;SDS011;58851;42.984;20.336;2022-12-07T15:31:36;231.10;;;155.20;;
55330;SDS011;58851;42.984;20.336;2022-12-07T15:34:03;233.77;;;164.18;;
55330;SDS011;58851;42.984;20.336;2022-12-07T15:36:30;205.57;;;143.10;;
55330;SDS011;58851;42.984;20.336;2022-12-07T15:38:57;244.43;;;168.65;;
55330;SDS011;58851;42.984;20.336;2022-12-07T15:41:24;260.40;;;180.85;;
55330;SDS011;58851;42.984;20.336;2022-12-07T15:43:49;248.32;;;167.32;;
55330;SDS011;58851;42.984;20.336;2022-12-07T15:46:35;250.38;;;174.95;;
55330;SDS011;58851;42.984;20.336;2022-12-07T15:49:03;240.02;;;168.57;;
55330;SDS011;58851;42.984;20.336;2022-12-07T15:51:31;265.52;;;186.60;;
55330;SDS011;58851;42.984;20.336;2022-12-07T15:53:57;317.13;;;228.70;;
55330;SDS011;58851;42.984;20.336;2022-12-07T15:56:23;359.25;;;268.67;;
55330;SDS011;58851;42.984;20.336;2022-12-07T15:58:49;406.55;;;296.67;;
55330;SDS011;58851;42.984;20.336;2022-12-07T16:01:16;352.05;;;253.18;;
55330;SDS011;58851;42.984;20.336;2022-12-07T16:03:43;371.45;;;274.90;;
55330;SDS011;58851;42.984;20.336;2022-12-07T16:06:09;382.20;;;280.98;;
55330;SDS011;58851;42.984;20.336;2022-12-07T16:08:36;350.90;;;252.10;;
55330;SDS011;58851;42.984;20.336;2022-12-07T16:11:05;334.77;;;248.50;;
55330;SDS011;58851;42.984;20.336;2022-12-07T16:13:32;317.65;;;234.07;;
55330;SDS011;58851;42.984;20.336;2022-12-07T16:16:01;266.25;;;201.20;;
55330;SDS011;58851;42.984;20.336;2022-12-07T16:18:28;287.63;;;217.75;;
55330;SDS011;58851;42.984;20.336;2022-12-07T16:20:54;258.75;;;194.48;;
55330;SDS011;58851;42.984;20.336;2022-12-07T16:23:20;305.05;;;218.25;;
55330;SDS011;58851;42.984;20.336;2022-12-07T16:25:46;310.85;;;227.55;;